Grassy, Missouri
Current Conditions -  °F | °C
As of 4:53 PM on Wednesday 22 Oct 2014 (Local Time) from KCGI Reporting Station
Clear Clear  
Wind Chill: 64°   Ceiling: Unl
Heat Index: 64°   Visibility: 10mi
Dew Point: 40°   Wind: 7mph
Humidity: 41%   Direction: 30°NNE
Pressure: 30.21"   Gusts: NA
Location:  37.26°N, 90.12°W
Report Text: KCGI 222153Z AUTO 03006KT 10SM CLR 18/04 A3021 RMK AO2 SLP231 T01780044 TSNO
Loading
Personal Weather Stations






























Interactive Weather Map
Tropical Storm Tracking
New forecast layout! Learn more

10-Day Weather Forecast

Advertisements
Track Severe Weather on mobile